Hauptseite
METAR-TAF:

METAR-TAF

Flughäfen :

Brevoort Island, Nunavut, Kanada

Breite: 63-20N, Länge: 064-09W, Höhe: 367 m

Beobachtung

Neuester Wetterbericht von vor 5 Minuten, um 19:08 UTC
Wind 35 kt aus Südwest, Böen bis zu 43 kt
Temperatur -17°C
Luftfeuchtigkeit 84%
Luftdruck 1004 hPa
Geschlossene Wolkendecke in der Höhe von 400 ft

METAR: CWOB 251908Z AUTO 23035G43KT ////SM //// OVC004 M17/M19 A2965

Zeit: 14:13 (19:13 UTC)


TAF: fehlend

Wetterbeobachtungen und Prognosen von mehr als 4000 Flughäfen (METAR und TAF Bericht).

Die verfügbaren Stationen werden durch gelbe und rote Markierungen auf der Karte dargestellt.

Führen Sie die Maus auf sie, um den Namen der Station zu sehen.

Darauf klicken, um die Beobachtung von Wetterbeobachtungen und Prognosen zu sehen.

Um die Karte zu ändern : klicken Sie auf den grünen Tasten mit einem schwarzen Kreuz Zum Vergrößern, auf den grünen Button mit einem Gedankenstrich zu verkleinern, oder auf die grünen Pfeile für benachbarte Karten.


METAR-TAF: